sensor_id;sensor_type;location;lat;lon;timestamp;pressure;altitude;pressure_sealevel;temperature
64394;BMP280;50712;49.506;10.400;2023-01-28T00:00:14;98632.75;;;3.70
64394;BMP280;50712;49.506;10.400;2023-01-28T00:00:45;98623.09;;;3.69
64394;BMP280;50712;49.506;10.400;2023-01-28T00:01:15;98627.34;;;3.70
64394;BMP280;50712;49.506;10.400;2023-01-28T00:01:46;98623.09;;;3.69
64394;BMP280;50712;49.506;10.400;2023-01-28T00:02:16;98627.34;;;3.70
64394;BMP280;50712;49.506;10.400;2023-01-28T00:02:47;98627.34;;;3.70
64394;BMP280;50712;49.506;10.400;2023-01-28T00:03:18;98623.88;;;3.69
64394;BMP280;50712;49.506;10.400;2023-01-28T00:03:49;98621.97;;;3.70
64394;BMP280;50712;49.506;10.400;2023-01-28T00:04:20;98621.19;;;3.69
64394;BMP280;50712;49.506;10.400;2023-01-28T00:04:51;98624.66;;;3.70
64394;BMP280;50712;49.506;10.400;2023-01-28T00:05:21;98625.81;;;3.69
64394;BMP280;50712;49.506;10.400;2023-01-28T00:06:00;98621.19;;;3.69
64394;BMP280;50712;49.506;10.400;2023-01-28T00:06:31;98626.56;;;3.69
64394;BMP280;50712;49.506;10.400;2023-01-28T00:07:01;98625.81;;;3.69
64394;BMP280;50712;49.506;10.400;2023-01-28T00:07:32;98623.09;;;3.69
64394;BMP280;50712;49.506;10.400;2023-01-28T00:08:02;98616.16;;;3.68
64394;BMP280;50712;49.506;10.400;2023-01-28T00:08:32;98625.03;;;3.68
64394;BMP280;50712;49.506;10.400;2023-01-28T00:09:03;98627.72;;;3.68
64394;BMP280;50712;49.506;10.400;2023-01-28T00:09:33;98620.41;;;3.69
64394;BMP280;50712;49.506;10.400;2023-01-28T00:10:04;98620.41;;;3.69
64394;BMP280;50712;49.506;10.400;2023-01-28T00:10:35;98614.25;;;3.68
64394;BMP280;50712;49.506;10.400;2023-01-28T00:11:09;98616.94;;;3.68
64394;BMP280;50712;49.506;10.400;2023-01-28T00:11:41;98617.72;;;3.69
64394;BMP280;50712;49.506;10.400;2023-01-28T00:12:11;98612.31;;;3.69
64394;BMP280;50712;49.506;10.400;2023-01-28T00:12:42;98614.25;;;3.68
64394;BMP280;50712;49.506;10.400;2023-01-28T00:13:12;98615.81;;;3.69
64394;BMP280;50712;49.506;10.400;2023-01-28T00:13:43;98611.56;;;3.68
64394;BMP280;50712;49.506;10.400;2023-01-28T00:14:14;98613.09;;;3.69
64394;BMP280;50712;49.506;10.400;2023-01-28T00:14:44;98605.03;;;3.69
64394;BMP280;50712;49.506;10.400;2023-01-28T00:15:17;98613.09;;;3.69
64394;BMP280;50712;49.506;10.400;2023-01-28T00:15:53;98605.03;;;3.69
64394;BMP280;50712;49.506;10.400;2023-01-28T00:16:26;98613.88;;;3.70
64394;BMP280;50712;49.506;10.400;2023-01-28T00:16:56;98607.72;;;3.69
64394;BMP280;50712;49.506;10.400;2023-01-28T00:17:27;98604.25;;;3.69
64394;BMP280;50712;49.506;10.400;2023-01-28T00:17:57;98601.53;;;3.69
64394;BMP280;50712;49.506;10.400;2023-01-28T00:18:27;98605.03;;;3.69
64394;BMP280;50712;49.506;10.400;2023-01-28T00:18:58;98598.84;;;3.69
64394;BMP280;50712;49.506;10.400;2023-01-28T00:19:29;98604.25;;;3.69
64394;BMP280;50712;49.506;10.400;2023-01-28T00:19:59;98609.22;;;3.67
64394;BMP280;50712;49.506;10.400;2023-01-28T00:20:29;98598.06;;;3.68
64394;BMP280;50712;49.506;10.400;2023-01-28T00:21:35;98600.00;;;3.68
64394;BMP280;50712;49.506;10.400;2023-01-28T00:22:06;98603.47;;;3.68
64394;BMP280;50712;49.506;10.400;2023-01-28T00:22:36;98601.91;;;3.67
64394;BMP280;50712;49.506;10.400;2023-01-28T00:23:06;98599.22;;;3.67
64394;BMP280;50712;49.506;10.400;2023-01-28T00:23:37;98596.53;;;3.67
64394;BMP280;50712;49.506;10.400;2023-01-28T00:24:08;98602.69;;;3.68
64394;BMP280;50712;49.506;10.400;2023-01-28T00:24:39;98593.81;;;3.67
64394;BMP280;50712;49.506;10.400;2023-01-28T00:25:09;98593.06;;;3.67
64394;BMP280;50712;49.506;10.400;2023-01-28T00:25:39;98595.00;;;3.66
64394;BMP280;50712;49.506;10.400;2023-01-28T00:26:13;98595.75;;;3.67
64394;BMP280;50712;49.506;10.400;2023-01-28T00:26:47;98594.22;;;3.66
64394;BMP280;50712;49.506;10.400;2023-01-28T00:27:17;98592.31;;;3.66
64394;BMP280;50712;49.506;10.400;2023-01-28T00:27:48;98597.31;;;3.68
64394;BMP280;50712;49.506;10.400;2023-01-28T00:28:20;98600.38;;;3.66
64394;BMP280;50712;49.506;10.400;2023-01-28T00:28:51;98598.44;;;3.67
64394;BMP280;50712;49.506;10.400;2023-01-28T00:29:21;98601.13;;;3.67
64394;BMP280;50712;49.506;10.400;2023-01-28T00:29:51;98600.38;;;3.66
64394;BMP280;50712;49.506;10.400;2023-01-28T00:30:24;98599.59;;;3.66
64394;BMP280;50712;49.506;10.400;2023-01-28T00:30:54;98600.38;;;3.66
64394;BMP280;50712;49.506;10.400;2023-01-28T00:31:26;98599.59;;;3.66
64394;BMP280;50712;49.506;10.400;2023-01-28T00:31:57;98602.31;;;3.66
64394;BMP280;50712;49.506;10.400;2023-01-28T00:32:27;98605.00;;;3.66
64394;BMP280;50712;49.506;10.400;2023-01-28T00:32:58;98604.22;;;3.65
64394;BMP280;50712;49.506;10.400;2023-01-28T00:33:28;98606.91;;;3.65
64394;BMP280;50712;49.506;10.400;2023-01-28T00:33:59;98601.88;;;3.64
64394;BMP280;50712;49.506;10.400;2023-01-28T00:34:29;98606.13;;;3.65
64394;BMP280;50712;49.506;10.400;2023-01-28T00:34:59;98606.13;;;3.65
64394;BMP280;50712;49.506;10.400;2023-01-28T00:35:30;98598.06;;;3.65
64394;BMP280;50712;49.506;10.400;2023-01-28T00:36:00;98606.91;;;3.65
64394;BMP280;50712;49.506;10.400;2023-01-28T00:36:31;98606.91;;;3.65
64394;BMP280;50712;49.506;10.400;2023-01-28T00:37:02;98604.22;;;3.65
64394;BMP280;50712;49.506;10.400;2023-01-28T00:37:34;98599.97;;;3.64
64394;BMP280;50712;49.506;10.400;2023-01-28T00:38:05;98600.75;;;3.65
64394;BMP280;50712;49.506;10.400;2023-01-28T00:38:36;98598.06;;;3.65
64394;BMP280;50712;49.506;10.400;2023-01-28T00:39:09;98598.84;;;3.65
64394;BMP280;50712;49.506;10.400;2023-01-28T00:39:45;98606.53;;;3.67
64394;BMP280;50712;49.506;10.400;2023-01-28T00:40:15;98606.13;;;3.65
64394;BMP280;50712;49.506;10.400;2023-01-28T00:40:46;98599.59;;;3.66
64394;BMP280;50712;49.506;10.400;2023-01-28T00:41:17;98599.59;;;3.66
64394;BMP280;50712;49.506;10.400;2023-01-28T00:41:51;98599.59;;;3.66
64394;BMP280;50712;49.506;10.400;2023-01-28T00:42:22;98610.38;;;3.66
64394;BMP280;50712;49.506;10.400;2023-01-28T00:42:52;98599.59;;;3.66
64394;BMP280;50712;49.506;10.400;2023-01-28T00:43:24;98608.47;;;3.66
64394;BMP280;50712;49.506;10.400;2023-01-28T00:43:54;98608.47;;;3.66
64394;BMP280;50712;49.506;10.400;2023-01-28T00:44:25;98599.59;;;3.66
64394;BMP280;50712;49.506;10.400;2023-01-28T00:44:56;98606.53;;;3.67
64394;BMP280;50712;49.506;10.400;2023-01-28T00:45:26;98601.13;;;3.67
64394;BMP280;50712;49.506;10.400;2023-01-28T00:45:58;98593.06;;;3.67
64394;BMP280;50712;49.506;10.400;2023-01-28T00:46:31;98601.91;;;3.67
64394;BMP280;50712;49.506;10.400;2023-01-28T00:47:01;98596.53;;;3.67
64394;BMP280;50712;49.506;10.400;2023-01-28T00:47:31;98599.22;;;3.67
64394;BMP280;50712;49.506;10.400;2023-01-28T00:48:02;98604.59;;;3.67
64394;BMP280;50712;49.506;10.400;2023-01-28T00:48:33;98600.00;;;3.68
64394;BMP280;50712;49.506;10.400;2023-01-28T00:49:05;98599.22;;;3.67
64394;BMP280;50712;49.506;10.400;2023-01-28T00:49:37;98599.22;;;3.67
64394;BMP280;50712;49.506;10.400;2023-01-28T00:50:08;98604.59;;;3.67
64394;BMP280;50712;49.506;10.400;2023-01-28T00:50:38;98598.44;;;3.67
64394;BMP280;50712;49.506;10.400;2023-01-28T00:51:10;98595.75;;;3.67
64394;BMP280;50712;49.506;10.400;2023-01-28T00:51:42;98603.81;;;3.67
64394;BMP280;50712;49.506;10.400;2023-01-28T00:52:13;98608.06;;;3.68
64394;BMP280;50712;49.506;10.400;2023-01-28T00:52:43;98608.47;;;3.66
64394;BMP280;50712;49.506;10.400;2023-01-28T00:53:13;98601.13;;;3.67
64394;BMP280;50712;49.506;10.400;2023-01-28T00:53:44;98608.47;;;3.66
64394;BMP280;50712;49.506;10.400;2023-01-28T00:54:15;98601.91;;;3.67
64394;BMP280;50712;49.506;10.400;2023-01-28T00:54:45;98599.59;;;3.66
64394;BMP280;50712;49.506;10.400;2023-01-28T00:55:15;98608.47;;;3.66
64394;BMP280;50712;49.506;10.400;2023-01-28T00:55:46;98607.31;;;3.67
64394;BMP280;50712;49.506;10.400;2023-01-28T00:56:16;98612.69;;;3.67
64394;BMP280;50712;49.506;10.400;2023-01-28T00:56:48;98609.22;;;3.67
64394;BMP280;50712;49.506;10.400;2023-01-28T00:57:18;98613.47;;;3.68
64394;BMP280;50712;49.506;10.400;2023-01-28T00:57:49;98612.69;;;3.67
64394;BMP280;50712;49.506;10.400;2023-01-28T00:58:20;98610.00;;;3.67
64394;BMP280;50712;49.506;10.400;2023-01-28T00:58:52;98610.78;;;3.68
64394;BMP280;50712;49.506;10.400;2023-01-28T00:59:23;98603.47;;;3.68
64394;BMP280;50712;49.506;10.400;2023-01-28T00:59:53;98614.25;;;3.68
64394;BMP280;50712;49.506;10.400;2023-01-28T01:00:25;98610.41;;;3.69
64394;BMP280;50712;49.506;10.400;2023-01-28T01:00:56;98599.63;;;3.69
64394;BMP280;50712;49.506;10.400;2023-01-28T01:01:26;98605.78;;;3.70
64394;BMP280;50712;49.506;10.400;2023-01-28T01:01:57;98611.19;;;3.70
64394;BMP280;50712;49.506;10.400;2023-01-28T01:02:41;98608.50;;;3.70
64394;BMP280;50712;49.506;10.400;2023-01-28T01:03:11;98603.84;;;3.70
64394;BMP280;50712;49.506;10.400;2023-01-28T01:03:42;98606.53;;;3.70
64394;BMP280;50712;49.506;10.400;2023-01-28T01:04:13;98616.16;;;3.71
64394;BMP280;50712;49.506;10.400;2023-01-28T01:04:43;98608.06;;;3.71
64394;BMP280;50712;49.506;10.400;2023-01-28T01:05:23;98613.47;;;3.71
64394;BMP280;50712;49.506;10.400;2023-01-28T01:05:56;98607.31;;;3.71
64394;BMP280;50712;49.506;10.400;2023-01-28T01:06:27;98616.94;;;3.72
64394;BMP280;50712;49.506;10.400;2023-01-28T01:06:57;98606.16;;;3.72
64394;BMP280;50712;49.506;10.400;2023-01-28T01:07:30;98604.22;;;3.72
64394;BMP280;50712;49.506;10.400;2023-01-28T01:08:13;98605.00;;;3.73
64394;BMP280;50712;49.506;10.400;2023-01-28T01:08:43;98615.78;;;3.73
64394;BMP280;50712;49.506;10.400;2023-01-28T01:09:20;98606.94;;;3.72
64394;BMP280;50712;49.506;10.400;2023-01-28T01:09:52;98607.72;;;3.73
64394;BMP280;50712;49.506;10.400;2023-01-28T01:10:22;98611.16;;;3.73
64394;BMP280;50712;49.506;10.400;2023-01-28T01:10:52;98614.63;;;3.74
64394;BMP280;50712;49.506;10.400;2023-01-28T01:11:28;98611.16;;;3.73
64394;BMP280;50712;49.506;10.400;2023-01-28T01:11:58;98605.75;;;3.73
64394;BMP280;50712;49.506;10.400;2023-01-28T01:12:29;98607.72;;;3.73
64394;BMP280;50712;49.506;10.400;2023-01-28T01:12:59;98616.53;;;3.73
64394;BMP280;50712;49.506;10.400;2023-01-28T01:13:30;98606.94;;;3.72
64394;BMP280;50712;49.506;10.400;2023-01-28T01:14:01;98607.72;;;3.73
64394;BMP280;50712;49.506;10.400;2023-01-28T01:14:34;98608.44;;;3.73
64394;BMP280;50712;49.506;10.400;2023-01-28T01:15:05;98616.53;;;3.73
64394;BMP280;50712;49.506;10.400;2023-01-28T01:15:39;98620.00;;;3.74
64394;BMP280;50712;49.506;10.400;2023-01-28T01:16:13;98620.00;;;3.74
64394;BMP280;50712;49.506;10.400;2023-01-28T01:16:45;98611.94;;;3.74
64394;BMP280;50712;49.506;10.400;2023-01-28T01:17:16;98609.22;;;3.74
64394;BMP280;50712;49.506;10.400;2023-01-28T01:17:47;98610.78;;;3.75
64394;BMP280;50712;49.506;10.400;2023-01-28T01:18:18;98613.47;;;3.75
64394;BMP280;50712;49.506;10.400;2023-01-28T01:18:50;98605.41;;;3.75
64394;BMP280;50712;49.506;10.400;2023-01-28T01:19:22;98606.16;;;3.75
64394;BMP280;50712;49.506;10.400;2023-01-28T01:19:52;98611.94;;;3.74
64394;BMP280;50712;49.506;10.400;2023-01-28T01:20:23;98620.78;;;3.74
64394;BMP280;50712;49.506;10.400;2023-01-28T01:20:56;98610.78;;;3.75
64394;BMP280;50712;49.506;10.400;2023-01-28T01:21:28;98612.69;;;3.74
64394;BMP280;50712;49.506;10.400;2023-01-28T01:22:00;98617.31;;;3.74
64394;BMP280;50712;49.506;10.400;2023-01-28T01:22:36;98613.47;;;3.75
64394;BMP280;50712;49.506;10.400;2023-01-28T01:23:06;98610.78;;;3.75
64394;BMP280;50712;49.506;10.400;2023-01-28T01:23:37;98618.88;;;3.75
64394;BMP280;50712;49.506;10.400;2023-01-28T01:24:07;98616.94;;;3.75
64394;BMP280;50712;49.506;10.400;2023-01-28T01:24:38;98610.00;;;3.74
64394;BMP280;50712;49.506;10.400;2023-01-28T01:25:08;98621.56;;;3.75
64394;BMP280;50712;49.506;10.400;2023-01-28T01:25:39;98619.66;;;3.75
64394;BMP280;50712;49.506;10.400;2023-01-28T01:26:11;98612.34;;;3.76
64394;BMP280;50712;49.506;10.400;2023-01-28T01:26:42;98615.03;;;3.76
64394;BMP280;50712;49.506;10.400;2023-01-28T01:27:12;98614.25;;;3.75
64394;BMP280;50712;49.506;10.400;2023-01-28T01:27:43;98619.66;;;3.75
64394;BMP280;50712;49.506;10.400;2023-01-28T01:28:17;98625.03;;;3.75
64394;BMP280;50712;49.506;10.400;2023-01-28T01:28:49;98626.56;;;3.76
64394;BMP280;50712;49.506;10.400;2023-01-28T01:29:20;98623.13;;;3.76
64394;BMP280;50712;49.506;10.400;2023-01-28T01:29:50;98620.41;;;3.76
64394;BMP280;50712;49.506;10.400;2023-01-28T01:30:20;98626.56;;;3.76
64394;BMP280;50712;49.506;10.400;2023-01-28T01:30:58;98626.56;;;3.76
64394;BMP280;50712;49.506;10.400;2023-01-28T01:31:32;98620.41;;;3.76
64394;BMP280;50712;49.506;10.400;2023-01-28T01:32:04;98619.25;;;3.77
64394;BMP280;50712;49.506;10.400;2023-01-28T01:32:34;98621.94;;;3.77
64394;BMP280;50712;49.506;10.400;2023-01-28T01:33:05;98622.72;;;3.77
64394;BMP280;50712;49.506;10.400;2023-01-28T01:33:36;98620.03;;;3.77
64394;BMP280;50712;49.506;10.400;2023-01-28T01:34:06;98627.34;;;3.77
64394;BMP280;50712;49.506;10.400;2023-01-28T01:34:38;98615.41;;;3.78
64394;BMP280;50712;49.506;10.400;2023-01-28T01:35:09;98628.91;;;3.78
64394;BMP280;50712;49.506;10.400;2023-01-28T01:35:39;98624.66;;;3.77
64394;BMP280;50712;49.506;10.400;2023-01-28T01:36:10;98615.78;;;3.76
64394;BMP280;50712;49.506;10.400;2023-01-28T01:36:43;98624.66;;;3.77
64394;BMP280;50712;49.506;10.400;2023-01-28T01:37:13;98626.56;;;3.76
64394;BMP280;50712;49.506;10.400;2023-01-28T01:37:44;98625.81;;;3.76
64394;BMP280;50712;49.506;10.400;2023-01-28T01:38:15;98626.56;;;3.76
64394;BMP280;50712;49.506;10.400;2023-01-28T01:38:45;98631.94;;;3.76
64394;BMP280;50712;49.506;10.400;2023-01-28T01:39:16;98635.44;;;3.77
64394;BMP280;50712;49.506;10.400;2023-01-28T01:39:46;98626.56;;;3.76
64394;BMP280;50712;49.506;10.400;2023-01-28T01:40:17;98631.94;;;3.76
64394;BMP280;50712;49.506;10.400;2023-01-28T01:40:47;98629.25;;;3.76
64394;BMP280;50712;49.506;10.400;2023-01-28T01:41:22;98625.81;;;3.76
64394;BMP280;50712;49.506;10.400;2023-01-28T01:41:55;98627.34;;;3.77
64394;BMP280;50712;49.506;10.400;2023-01-28T01:42:26;98630.03;;;3.77
64394;BMP280;50712;49.506;10.400;2023-01-28T01:42:57;98630.03;;;3.77
64394;BMP280;50712;49.506;10.400;2023-01-28T01:43:44;98627.34;;;3.77
64394;BMP280;50712;49.506;10.400;2023-01-28T01:45:33;98627.34;;;3.77
64394;BMP280;50712;49.506;10.400;2023-01-28T01:46:04;98642.38;;;3.78
64394;BMP280;50712;49.506;10.400;2023-01-28T01:46:36;98641.59;;;3.77
64394;BMP280;50712;49.506;10.400;2023-01-28T01:47:10;98642.38;;;3.78
64394;BMP280;50712;49.506;10.400;2023-01-28T01:47:53;98641.22;;;3.79
64394;BMP280;50712;49.506;10.400;2023-01-28T01:48:27;98638.13;;;3.77
64394;BMP280;50712;49.506;10.400;2023-01-28T01:49:35;98638.91;;;3.77
64394;BMP280;50712;49.506;10.400;2023-01-28T01:49:59;98642.72;;;3.76
64394;BMP280;50712;49.506;10.400;2023-01-28T01:50:41;98638.13;;;3.77
64394;BMP280;50712;49.506;10.400;2023-01-28T01:51:18;98640.81;;;3.77
64394;BMP280;50712;49.506;10.400;2023-01-28T01:51:55;98636.59;;;3.76
64394;BMP280;50712;49.506;10.400;2023-01-28T01:52:32;98641.97;;;3.76
64394;BMP280;50712;49.506;10.400;2023-01-28T01:53:14;98640.03;;;3.76
64394;BMP280;50712;49.506;10.400;2023-01-28T01:53:48;98640.03;;;3.76
64394;BMP280;50712;49.506;10.400;2023-01-28T01:54:24;98642.72;;;3.76
64394;BMP280;50712;49.506;10.400;2023-01-28T01:55:00;98645.44;;;3.76
64394;BMP280;50712;49.506;10.400;2023-01-28T01:55:36;98648.13;;;3.76
64394;BMP280;50712;49.506;10.400;2023-01-28T01:56:10;98645.44;;;3.76
64394;BMP280;50712;49.506;10.400;2023-01-28T01:56:46;98646.59;;;3.75
64394;BMP280;50712;49.506;10.400;2023-01-28T01:57:23;98644.69;;;3.76
64394;BMP280;50712;49.506;10.400;2023-01-28T01:57:59;98639.28;;;3.76
64394;BMP280;50712;49.506;10.400;2023-01-28T01:58:34;98638.50;;;3.75
64394;BMP280;50712;49.506;10.400;2023-01-28T01:59:11;98639.28;;;3.76
64394;BMP280;50712;49.506;10.400;2023-01-28T01:59:44;98640.03;;;3.76
64394;BMP280;50712;49.506;10.400;2023-01-28T02:00:15;98638.50;;;3.75
64394;BMP280;50712;49.506;10.400;2023-01-28T02:00:47;98640.03;;;3.76
64394;BMP280;50712;49.506;10.400;2023-01-28T02:01:19;98644.69;;;3.76
64394;BMP280;50712;49.506;10.400;2023-01-28T02:01:50;98650.44;;;3.78
64394;BMP280;50712;49.506;10.400;2023-01-28T02:02:21;98645.06;;;3.78
64394;BMP280;50712;49.506;10.400;2023-01-28T02:02:53;98647.75;;;3.78
64394;BMP280;50712;49.506;10.400;2023-01-28T02:03:40;98645.84;;;3.78
64394;BMP280;50712;49.506;10.400;2023-01-28T02:04:19;98648.16;;;3.80
64394;BMP280;50712;49.506;10.400;2023-01-28T02:04:54;98643.53;;;3.80
64394;BMP280;50712;49.506;10.400;2023-01-28T02:05:24;98644.69;;;3.79
64394;BMP280;50712;49.506;10.400;2023-01-28T02:05:55;98648.16;;;3.80
64394;BMP280;50712;49.506;10.400;2023-01-28T02:06:26;98648.16;;;3.80
64394;BMP280;50712;49.506;10.400;2023-01-28T02:06:58;98645.44;;;3.80
64394;BMP280;50712;49.506;10.400;2023-01-28T02:07:30;98646.22;;;3.80
64394;BMP280;50712;49.506;10.400;2023-01-28T02:08:01;98644.69;;;3.79
64394;BMP280;50712;49.506;10.400;2023-01-28T02:08:52;98641.22;;;3.79
64394;BMP280;50712;49.506;10.400;2023-01-28T02:09:26;98652.00;;;3.79
64394;BMP280;50712;49.506;10.400;2023-01-28T02:10:01;98654.69;;;3.79
64394;BMP280;50712;49.506;10.400;2023-01-28T02:10:31;98646.63;;;3.79
64394;BMP280;50712;49.506;10.400;2023-01-28T02:11:06;98643.91;;;3.79
64394;BMP280;50712;49.506;10.400;2023-01-28T02:11:39;98643.91;;;3.79
64394;BMP280;50712;49.506;10.400;2023-01-28T02:12:11;98650.09;;;3.79
64394;BMP280;50712;49.506;10.400;2023-01-28T02:12:48;98643.91;;;3.79
64394;BMP280;50712;49.506;10.400;2023-01-28T02:13:31;98642.00;;;3.79
64394;BMP280;50712;49.506;10.400;2023-01-28T02:14:10;98641.22;;;3.79
64394;BMP280;50712;49.506;10.400;2023-01-28T02:14:42;98642.00;;;3.79
64394;BMP280;50712;49.506;10.400;2023-01-28T02:15:16;98638.13;;;3.80
64394;BMP280;50712;49.506;10.400;2023-01-28T02:15:49;98638.91;;;3.81
64394;BMP280;50712;49.506;10.400;2023-01-28T02:16:20;98641.63;;;3.81
64394;BMP280;50712;49.506;10.400;2023-01-28T02:16:51;98646.22;;;3.80
64394;BMP280;50712;49.506;10.400;2023-01-28T02:17:22;98635.09;;;3.82
64394;BMP280;50712;49.506;10.400;2023-01-28T02:17:54;98640.47;;;3.82
64394;BMP280;50712;49.506;10.400;2023-01-28T02:18:26;98648.56;;;3.82
64394;BMP280;50712;49.506;10.400;2023-01-28T02:18:56;98635.84;;;3.82
64394;BMP280;50712;49.506;10.400;2023-01-28T02:19:36;98639.31;;;3.83
64394;BMP280;50712;49.506;10.400;2023-01-28T02:20:12;98649.72;;;3.84
64394;BMP280;50712;49.506;10.400;2023-01-28T02:22:48;98638.53;;;3.86
64394;BMP280;50712;49.506;10.400;2023-01-28T02:28:40;98625.06;;;3.86
64394;BMP280;50712;49.506;10.400;2023-01-28T02:29:57;98634.31;;;3.85
64394;BMP280;50712;49.506;10.400;2023-01-28T02:31:48;98627.03;;;3.85
64394;BMP280;50712;49.506;10.400;2023-01-28T02:32:32;98628.94;;;3.85
64394;BMP280;50712;49.506;10.400;2023-01-28T02:33:13;98636.25;;;3.84
64394;BMP280;50712;49.506;10.400;2023-01-28T02:33:58;98634.31;;;3.85
64394;BMP280;50712;49.506;10.400;2023-01-28T02:35:17;98629.72;;;3.85
64394;BMP280;50712;49.506;10.400;2023-01-28T02:35:53;98635.09;;;3.85
64394;BMP280;50712;49.506;10.400;2023-01-28T02:37:24;98640.50;;;3.85
64394;BMP280;50712;49.506;10.400;2023-01-28T02:38:07;98639.72;;;3.85
64394;BMP280;50712;49.506;10.400;2023-01-28T02:38:40;98638.53;;;3.86
64394;BMP280;50712;49.506;10.400;2023-01-28T02:39:23;98644.72;;;3.86
64394;BMP280;50712;49.506;10.400;2023-01-28T02:39:58;98640.09;;;3.87
64394;BMP280;50712;49.506;10.400;2023-01-28T02:40:34;98634.72;;;3.87
64394;BMP280;50712;49.506;10.400;2023-01-28T02:41:28;98632.00;;;3.87
64394;BMP280;50712;49.506;10.400;2023-01-28T02:42:04;98644.34;;;3.88
64394;BMP280;50712;49.506;10.400;2023-01-28T02:42:40;98632.78;;;3.87
64394;BMP280;50712;49.506;10.400;2023-01-28T02:43:10;98638.19;;;3.87
64394;BMP280;50712;49.506;10.400;2023-01-28T02:43:42;98645.13;;;3.88
64394;BMP280;50712;49.506;10.400;2023-01-28T02:44:14;98644.34;;;3.88
64394;BMP280;50712;49.506;10.400;2023-01-28T02:44:44;98640.88;;;3.87
64394;BMP280;50712;49.506;10.400;2023-01-28T02:45:22;98642.44;;;3.88
64394;BMP280;50712;49.506;10.400;2023-01-28T02:47:12;98647.81;;;3.88
64394;BMP280;50712;49.506;10.400;2023-01-28T02:48:05;98647.03;;;3.88
64394;BMP280;50712;49.506;10.400;2023-01-28T02:48:35;98649.75;;;3.88
64394;BMP280;50712;49.506;10.400;2023-01-28T02:49:08;98649.75;;;3.88
64394;BMP280;50712;49.506;10.400;2023-01-28T02:49:43;98645.13;;;3.88
64394;BMP280;50712;49.506;10.400;2023-01-28T02:50:18;98645.13;;;3.88
64394;BMP280;50712;49.506;10.400;2023-01-28T02:51:00;98647.81;;;3.88
64394;BMP280;50712;49.506;10.400;2023-01-28T02:53:51;98644.34;;;3.88
64394;BMP280;50712;49.506;10.400;2023-01-28T02:54:32;98644.34;;;3.88
64394;BMP280;50712;49.506;10.400;2023-01-28T02:55:09;98650.53;;;3.88
64394;BMP280;50712;49.506;10.400;2023-01-28T02:55:55;98643.22;;;3.89
64394;BMP280;50712;49.506;10.400;2023-01-28T02:56:34;98650.53;;;3.88
64394;BMP280;50712;49.506;10.400;2023-01-28T02:57:18;98645.13;;;3.88
64394;BMP280;50712;49.506;10.400;2023-01-28T03:01:27;98651.66;;;3.87
64394;BMP280;50712;49.506;10.400;2023-01-28T03:01:41;98648.19;;;3.87
64394;BMP280;50712;49.506;10.400;2023-01-28T03:04:40;98649.31;;;3.86
64394;BMP280;50712;49.506;10.400;2023-01-28T03:05:22;98650.50;;;3.85
64394;BMP280;50712;49.506;10.400;2023-01-28T03:05:55;98645.09;;;3.85
64394;BMP280;50712;49.506;10.400;2023-01-28T03:06:43;98644.31;;;3.84
64394;BMP280;50712;49.506;10.400;2023-01-28T03:07:17;98646.25;;;3.84
64394;BMP280;50712;49.506;10.400;2023-01-28T03:07:49;98645.47;;;3.83
64394;BMP280;50712;49.506;10.400;2023-01-28T03:08:21;98648.16;;;3.83
64394;BMP280;50712;49.506;10.400;2023-01-28T03:09:10;98649.72;;;3.84
64394;BMP280;50712;49.506;10.400;2023-01-28T03:09:51;98645.44;;;3.80
64394;BMP280;50712;49.506;10.400;2023-01-28T03:10:27;98648.16;;;3.83
64394;BMP280;50712;49.506;10.400;2023-01-28T03:10:58;98650.09;;;3.83
64394;BMP280;50712;49.506;10.400;2023-01-28T03:11:49;98651.25;;;3.82
64394;BMP280;50712;49.506;10.400;2023-01-28T03:12:43;98654.72;;;3.82
64394;BMP280;50712;49.506;10.400;2023-01-28T03:13:39;98655.88;;;3.81
64394;BMP280;50712;49.506;10.400;2023-01-28T03:14:30;98653.94;;;3.82
64394;BMP280;50712;49.506;10.400;2023-01-28T03:15:22;98656.66;;;3.82
64394;BMP280;50712;49.506;10.400;2023-01-28T03:16:14;98663.94;;;3.81
64394;BMP280;50712;49.506;10.400;2023-01-28T03:17:04;98657.00;;;3.80
64394;BMP280;50712;49.506;10.400;2023-01-28T03:19:23;98658.56;;;3.81
64394;BMP280;50712;49.506;10.400;2023-01-28T03:20:12;98665.88;;;3.81
64394;BMP280;50712;49.506;10.400;2023-01-28T03:21:09;98658.91;;;3.80
64394;BMP280;50712;49.506;10.400;2023-01-28T03:22:03;98663.16;;;3.81
64394;BMP280;50712;49.506;10.400;2023-01-28T03:22:53;98668.56;;;3.81
64394;BMP280;50712;49.506;10.400;2023-01-28T03:23:56;98668.97;;;3.79
64394;BMP280;50712;49.506;10.400;2023-01-28T03:24:50;98655.47;;;3.79
64394;BMP280;50712;49.506;10.400;2023-01-28T03:25:41;98661.63;;;3.80
64394;BMP280;50712;49.506;10.400;2023-01-28T03:26:34;98663.56;;;3.79
64394;BMP280;50712;49.506;10.400;2023-01-28T03:27:32;98667.00;;;3.80
64394;BMP280;50712;49.506;10.400;2023-01-28T03:28:26;98665.09;;;3.80
64394;BMP280;50712;49.506;10.400;2023-01-28T03:29:17;98660.09;;;3.79
64394;BMP280;50712;49.506;10.400;2023-01-28T03:30:21;98669.69;;;3.80
64394;BMP280;50712;49.506;10.400;2023-01-28T03:31:27;98666.63;;;3.78
64394;BMP280;50712;49.506;10.400;2023-01-28T03:32:17;98670.09;;;3.78
64394;BMP280;50712;49.506;10.400;2023-01-28T03:33:09;98670.09;;;3.78
64394;BMP280;50712;49.506;10.400;2023-01-28T03:33:59;98664.69;;;3.78
64394;BMP280;50712;49.506;10.400;2023-01-28T03:34:49;98661.22;;;3.78
64394;BMP280;50712;49.506;10.400;2023-01-28T03:35:38;98663.94;;;3.78
64394;BMP280;50712;49.506;10.400;2023-01-28T03:36:27;98668.53;;;3.77
64394;BMP280;50712;49.506;10.400;2023-01-28T03:37:35;98666.63;;;3.78
64394;BMP280;50712;49.506;10.400;2023-01-28T03:38:12;98663.94;;;3.78
64394;BMP280;50712;49.506;10.400;2023-01-28T03:38:51;98671.22;;;3.77
64394;BMP280;50712;49.506;10.400;2023-01-28T03:39:22;98664.28;;;3.76
64394;BMP280;50712;49.506;10.400;2023-01-28T03:39:55;98660.84;;;3.76
64394;BMP280;50712;49.506;10.400;2023-01-28T03:40:30;98662.75;;;3.75
64394;BMP280;50712;49.506;10.400;2023-01-28T03:41:01;98666.22;;;3.76
64394;BMP280;50712;49.506;10.400;2023-01-28T03:41:34;98671.63;;;3.76
64394;BMP280;50712;49.506;10.400;2023-01-28T03:42:08;98673.16;;;3.77
64394;BMP280;50712;49.506;10.400;2023-01-28T03:43:09;98669.69;;;3.76
64394;BMP280;50712;49.506;10.400;2023-01-28T03:43:40;98666.22;;;3.76
64394;BMP280;50712;49.506;10.400;2023-01-28T03:44:10;98666.97;;;3.76
64394;BMP280;50712;49.506;10.400;2023-01-28T03:45:01;98668.94;;;3.76